Terminal Aerodrome Forecast
Issued by NWS Dallas/Fort Worth, TX

Home | Current Version | Previous Version | Text Only | Print | Product List | Glossary On
Versions: 1 2 3 4 5 6 7 8 9 10 11 12 13 14 15 16 17 18 19 20 21 22 23 24 25 26 27
000
FTUS44 KFWD 241400 AAA
TAFDFW
TAF AMD
KDFW 241411Z 2414/2518 19017KT P6SM SCT020 BKN035
      TEMPO 2414/2415 BKN020
     FM241700 26017KT P6SM BKN035
     FM241900 32015KT P6SM SCT035
     FM250100 35006KT P6SM SKC
     FM251400 13005KT P6SM SKC=

USA.gov is the U.S. government's official web portal to all federal, state and local government web resources and services.